Time;durP1;ratioP1;P1;durP2;ratioP2;P2;SDS_P1;SDS_P2;PMS_P1;PMS_P2;Temp;Humidity;BMP_temperature;BMP_pressure;BME280_temperature;BME280_humidity;BME280_pressure;Samples;Min_cycle;Max_cycle;Signal;HPM_P1;HPM_P2
2023/10/26 00:02:13;;;;;;;0.80;0.75;;;;;;;10.11;100.00;96026.38;1222158;75;3062879;-76
2023/10/26 00:04:46;;;;;;;1.25;0.60;;;;;;;9.93;100.00;96022.34;1225205;75;2921740;-76
2023/10/26 00:07:19;;;;;;;1.90;1.40;;;;;;;9.80;100.00;96020.19;1221872;75;3100410;-75
2023/10/26 00:09:51;;;;;;;1.20;1.10;;;;;;;9.96;100.00;96026.03;1223818;75;2945619;-73
2023/10/26 00:12:24;;;;;;;1.10;1.00;;;;;;;10.07;100.00;96020.44;1225861;75;2914415;-73
2023/10/26 00:14:59;;;;;;;2.95;1.65;;;;;;;9.92;100.00;96026.31;1212789;75;3874120;-78
2023/10/26 00:17:32;;;;;;;1.20;1.10;;;;;;;10.07;100.00;96031.38;1225107;75;2924715;-77
2023/10/26 00:20:06;;;;;;;1.10;0.90;;;;;;;10.09;100.00;96025.41;1224745;75;2921985;-76
2023/10/26 00:22:38;;;;;;;1.25;1.00;;;;;;;10.16;100.00;96031.06;1222430;75;2927509;-77
2023/10/26 00:25:12;;;;;;;0.85;0.70;;;;;;;10.10;100.00;96033.13;1224490;75;2921568;-72
2023/10/26 00:27:45;;;;;;;1.40;0.70;;;;;;;10.12;100.00;96025.13;1225240;75;2916900;-72
2023/10/26 00:30:20;;;;;;;0.60;0.60;;;;;;;10.13;100.00;96021.16;1224479;75;2914130;-77
2023/10/26 00:32:53;;;;;;;1.35;1.00;;;;;;;10.17;100.00;96029.81;1220928;75;3105086;-75
2023/10/26 00:35:25;;;;;;;0.80;0.80;;;;;;;10.10;100.00;96027.66;1222951;75;2999371;-73
2023/10/26 00:37:58;;;;;;;2.55;1.20;;;;;;;10.03;100.00;96034.41;1224903;75;2924821;-76
2023/10/26 00:40:30;;;;;;;1.25;1.00;;;;;;;10.11;100.00;96033.84;1222781;75;2963791;-76
2023/10/26 00:43:04;;;;;;;1.15;0.90;;;;;;;10.15;100.00;96037.03;1225449;75;2925651;-77
2023/10/26 00:45:41;;;;;;;1.00;0.90;;;;;;;9.96;100.00;96043.19;1225407;75;2917719;-74
2023/10/26 00:48:14;;;;;;;1.55;1.10;;;;;;;9.93;100.00;96041.47;1223738;75;2972986;-78
2023/10/26 00:50:47;;;;;;;2.10;1.35;;;;;;;10.07;100.00;96045.06;1225191;75;2933641;-76
2023/10/26 00:53:21;;;;;;;1.30;0.80;;;;;;;10.10;100.00;96035.84;1225296;75;2920446;-74
2023/10/26 00:55:55;;;;;;;0.90;0.70;;;;;;;10.20;100.00;96036.97;1221434;75;3099746;-76
2023/10/26 00:58:29;;;;;;;1.10;0.75;;;;;;;10.09;100.00;96028.88;1221096;75;3101417;-75
2023/10/26 01:01:05;;;;;;;0.75;0.55;;;;;;;10.05;100.00;96031.16;1221923;75;2976415;-75
2023/10/26 01:03:38;;;;;;;0.90;0.80;;;;;;;10.20;100.00;96042.44;1224725;75;2919281;-76
2023/10/26 01:06:11;;;;;;;1.75;1.20;;;;;;;10.07;100.00;96025.19;1224622;75;2924016;-74
2023/10/26 01:08:43;;;;;;;1.75;1.05;;;;;;;10.03;100.00;96036.41;1223035;75;2983137;-73
2023/10/26 01:11:16;;;;;;;1.65;1.10;;;;;;;9.78;100.00;96030.91;1224620;75;2956843;-79
2023/10/26 01:13:50;;;;;;;3.25;1.30;;;;;;;10.12;100.00;96019.66;1219534;75;3079580;-75
2023/10/26 01:16:25;;;;;;;2.05;1.40;;;;;;;10.02;100.00;96021.25;1222367;75;3047432;-74
2023/10/26 01:19:01;;;;;;;2.90;1.50;;;;;;;9.98;100.00;96018.81;1225140;75;2926756;-77
2023/10/26 01:21:51;;;;;;;1.75;1.45;;;;;;;10.13;100.00;96018.41;1222975;75;3001230;-74
2023/10/26 01:24:24;;;;;;;1.15;1.05;;;;;;;10.10;100.00;96026.88;1225933;75;2914294;-73
2023/10/26 01:26:57;;;;;;;1.90;1.45;;;;;;;9.79;100.00;96018.72;1211161;75;3957647;-75
2023/10/26 01:29:29;;;;;;;1.75;1.30;;;;;;;10.08;100.00;96018.44;1221591;75;2944304;-72
2023/10/26 01:32:03;;;;;;;2.10;1.50;;;;;;;9.78;100.00;96033.63;1223902;75;2920608;-77
2023/10/26 01:34:37;;;;;;;2.95;1.45;;;;;;;9.81;100.00;96027.16;1225445;75;2917362;-75
2023/10/26 01:37:12;;;;;;;2.20;1.40;;;;;;;9.83;100.00;96026.63;1225470;75;2919231;-75
2023/10/26 01:39:45;;;;;;;1.50;1.20;;;;;;;9.96;100.00;96012.38;1225302;75;2916437;-74
2023/10/26 01:42:17;;;;;;;1.70;1.15;;;;;;;9.91;100.00;96015.88;1225462;75;2921665;-75
2023/10/26 01:44:50;;;;;;;1.20;0.95;;;;;;;10.13;100.00;96009.47;1199061;75;4619684;-72
2023/10/26 01:47:23;;;;;;;1.15;1.00;;;;;;;10.19;100.00;96027.28;1226330;75;2912574;-75
2023/10/26 01:49:55;;;;;;;1.00;0.85;;;;;;;10.18;100.00;96020.34;1222478;75;3015613;-76
2023/10/26 01:52:31;;;;;;;1.50;1.15;;;;;;;9.80;100.00;96024.94;1212193;75;3800856;-75
2023/10/26 01:55:04;;;;;;;2.55;1.35;;;;;;;9.92;100.00;96020.09;1222558;75;3052263;-77
2023/10/26 01:57:36;;;;;;;1.45;1.00;;;;;;;10.09;100.00;96031.63;1221619;75;3050541;-77
2023/10/26 02:00:11;;;;;;;1.65;0.80;;;;;;;10.10;100.00;96022.19;1224891;75;2918852;-75
2023/10/26 02:02:46;;;;;;;1.65;1.20;;;;;;;9.78;100.00;96022.69;1225564;75;2912532;-78
2023/10/26 02:05:19;;;;;;;2.85;1.15;;;;;;;10.04;100.00;96029.69;1224797;75;2920052;-75
2023/10/26 02:07:57;;;;;;;1.10;1.00;;;;;;;9.98;100.00;96029.75;1222055;75;3110373;-72
2023/10/26 02:10:31;;;;;;;1.40;1.00;;;;;;;9.78;100.00;96028.16;1221405;75;3097992;-76
2023/10/26 02:13:04;;;;;;;0.90;0.85;;;;;;;9.99;100.00;96027.75;1222134;75;3062873;-77
2023/10/26 02:15:37;;;;;;;1.10;0.70;;;;;;;10.05;100.00;96038.63;1224054;75;2929372;-75
2023/10/26 02:18:09;;;;;;;1.70;1.00;;;;;;;10.12;100.00;96036.06;1222802;75;3061443;-72
2023/10/26 02:20:42;;;;;;;2.05;0.90;;;;;;;9.93;100.00;96038.75;1218448;75;3105813;-76
2023/10/26 02:23:17;;;;;;;0.70;0.70;;;;;;;10.07;100.00;96036.84;1225327;75;2932277;-75
2023/10/26 02:25:50;;;;;;;1.35;0.65;;;;;;;10.05;100.00;96035.88;1224282;75;2919760;-75
2023/10/26 02:28:23;;;;;;;0.70;0.60;;;;;;;10.03;100.00;96030.94;1223937;75;2922003;-79
2023/10/26 02:30:55;;;;;;;1.00;0.70;;;;;;;9.99;100.00;96028.47;1223203;75;2997045;-74
2023/10/26 02:33:28;;;;;;;1.10;0.70;;;;;;;9.88;100.00;96031.31;1223856;75;2939395;-75
2023/10/26 02:36:00;;;;;;;0.60;0.60;;;;;;;10.10;100.00;96037.81;1222251;75;2963173;-71
2023/10/26 02:38:36;;;;;;;0.70;0.60;;;;;;;10.13;100.00;96034.09;1224968;75;2915382;-72
2023/10/26 02:41:09;;;;;;;2.30;0.75;;;;;;;9.96;100.00;96031.50;1223385;75;2922602;-79
2023/10/26 02:43:42;;;;;;;1.15;0.75;;;;;;;10.11;100.00;96034.59;1221423;75;3098328;-74
2023/10/26 02:46:14;;;;;;;0.65;0.65;;;;;;;9.92;100.00;96025.56;1224127;75;2920516;-72
2023/10/26 02:48:47;;;;;;;0.80;0.60;;;;;;;10.05;100.00;96022.22;1225638;75;2928254;-73
2023/10/26 02:51:19;;;;;;;0.90;0.70;;;;;;;10.12;100.00;96029.84;1222532;75;3096707;-74
2023/10/26 02:53:55;;;;;;;0.80;0.70;;;;;;;10.11;100.00;96037.31;1226684;75;2915643;-75
2023/10/26 02:56:27;;;;;;;1.30;0.90;;;;;;;10.09;100.00;96045.28;1221915;75;3048402;-76
2023/10/26 02:59:00;;;;;;;1.85;0.90;;;;;;;10.11;100.00;96042.06;1218889;75;3047448;-74
2023/10/26 03:01:36;;;;;;;1.00;0.80;;;;;;;10.17;100.00;96040.75;1223388;75;2984475;-75
2023/10/26 03:04:09;;;;;;;2.30;0.90;;;;;;;10.08;100.00;96043.06;1224403;75;2922252;-73
2023/10/26 03:06:43;;;;;;;0.90;0.90;;;;;;;10.14;100.00;96039.03;1224479;75;2931871;-79
2023/10/26 03:09:19;;;;;;;0.90;0.70;;;;;;;10.16;100.00;96039.25;1222022;75;3061162;-72
2023/10/26 03:11:52;;;;;;;2.15;0.80;;;;;;;10.07;100.00;96036.84;1210340;75;4027079;-76
2023/10/26 03:14:25;;;;;;;1.00;0.90;;;;;;;10.05;100.00;96055.03;1225389;75;2920247;-76
2023/10/26 03:16:57;;;;;;;1.45;1.30;;;;;;;10.11;100.00;96051.00;1225619;75;2922361;-77
2023/10/26 03:19:30;;;;;;;1.25;1.10;;;;;;;10.02;100.00;96062.25;1225513;75;2927334;-75
2023/10/26 03:22:03;;;;;;;2.30;1.10;;;;;;;10.00;100.00;96062.03;1225305;75;2931815;-73
2023/10/26 03:24:38;;;;;;;1.10;0.90;;;;;;;9.93;100.00;96068.81;1225012;75;2913427;-75
2023/10/26 03:27:10;;;;;;;1.35;1.10;;;;;;;10.12;100.00;96063.41;1225208;75;2917657;-73
2023/10/26 03:29:43;;;;;;;0.95;0.90;;;;;;;10.20;100.00;96067.06;1226612;75;2922520;-77
2023/10/26 03:32:16;;;;;;;1.25;0.90;;;;;;;9.95;100.00;96071.75;1224439;75;2927012;-73
2023/10/26 03:34:48;;;;;;;1.65;1.20;;;;;;;9.82;100.00;96072.34;1225391;75;2913528;-76
2023/10/26 03:37:21;;;;;;;2.25;1.45;;;;;;;9.59;100.00;96074.50;1225424;75;2918978;-75
2023/10/26 03:39:56;;;;;;;2.30;1.15;;;;;;;9.76;100.00;96068.91;1225368;75;2921065;-75
2023/10/26 03:42:29;;;;;;;1.20;1.10;;;;;;;9.92;100.00;96070.03;1225964;75;2919943;-77
2023/10/26 03:45:01;;;;;;;2.90;1.10;;;;;;;10.05;100.00;96068.69;1225346;75;2917619;-77
2023/10/26 03:47:34;;;;;;;0.80;0.70;;;;;;;10.11;100.00;96066.66;1224498;75;2920668;-71
2023/10/26 03:50:08;;;;;;;1.00;0.80;;;;;;;10.02;100.00;96067.72;1226653;75;2913478;-74
2023/10/26 03:52:41;;;;;;;1.20;1.00;;;;;;;9.99;100.00;96064.03;1225259;75;2922674;-73
2023/10/26 03:55:16;;;;;;;1.70;1.10;;;;;;;9.95;100.00;96071.75;1225673;75;2911510;-75
2023/10/26 03:57:49;;;;;;;1.50;1.10;;;;;;;9.87;100.00;96070.09;1225378;75;2926763;-71
2023/10/26 04:00:22;;;;;;;3.25;2.40;;;;;;;9.39;100.00;96067.44;1224722;75;2921553;-75
2023/10/26 04:02:55;;;;;;;7.00;3.40;;;;;;;9.26;100.00;96066.53;1226336;75;2915295;-77
2023/10/26 04:05:27;;;;;;;7.20;4.55;;;;;;;9.37;100.00;96059.00;1223202;75;2947340;-75
2023/10/26 04:08:02;;;;;;;6.40;4.40;;;;;;;9.60;100.00;96067.81;1227821;75;2925743;-72
2023/10/26 04:10:37;;;;;;;5.95;3.90;;;;;;;9.50;100.00;96063.16;1225778;75;3011759;-72
2023/10/26 04:13:10;;;;;;;5.00;3.60;;;;;;;9.57;100.00;96062.59;1225560;75;3034149;-75
2023/10/26 04:15:42;;;;;;;6.10;3.35;;;;;;;9.67;100.00;96061.06;1223090;75;3114268;-73
2023/10/26 04:18:15;;;;;;;3.90;2.90;;;;;;;9.52;100.00;96063.38;1226381;75;3055978;-72
2023/10/26 04:20:47;;;;;;;3.40;2.40;;;;;;;9.66;100.00;96056.09;1215036;75;4016055;-78
2023/10/26 04:23:20;;;;;;;3.35;2.50;;;;;;;9.77;100.00;96045.09;1228708;75;2946870;-77
2023/10/26 04:25:56;;;;;;;2.15;1.95;;;;;;;9.87;100.00;96040.75;1230323;75;2915660;-76
2023/10/26 04:28:28;;;;;;;2.00;1.50;;;;;;;9.87;100.00;96042.75;1229735;75;2920733;-75
2023/10/26 04:31:04;;;;;;;1.40;1.20;;;;;;;9.84;100.00;96046.50;1228898;75;2917293;-75
2023/10/26 04:33:36;;;;;;;1.75;1.30;;;;;;;9.89;100.00;96065.59;1229161;75;2914261;-76
2023/10/26 04:36:11;;;;;;;1.25;0.90;;;;;;;9.81;100.00;96059.97;1217192;75;3830819;-75
2023/10/26 04:38:43;;;;;;;3.55;1.30;;;;;;;9.60;100.00;96054.16;1224339;75;3043588;-77
2023/10/26 04:41:18;;;;;;;1.30;1.00;;;;;;;9.67;100.00;96058.31;1227005;75;2936888;-74
2023/10/26 04:43:51;;;;;;;1.10;0.95;;;;;;;9.74;100.00;96065.97;1226583;75;2929987;-73
2023/10/26 04:46:24;;;;;;;1.10;1.00;;;;;;;9.90;100.00;96066.34;1221962;75;2962604;-72
2023/10/26 04:48:56;;;;;;;1.30;0.80;;;;;;;9.94;100.00;96064.81;1223179;75;2925423;-74
2023/10/26 04:51:29;;;;;;;0.95;0.80;;;;;;;9.94;100.00;96066.81;1208545;75;4121715;-75
2023/10/26 04:54:02;;;;;;;1.85;1.10;;;;;;;9.75;100.00;96066.72;1219011;75;3067929;-74
2023/10/26 04:56:37;;;;;;;2.85;1.90;;;;;;;9.67;100.00;96069.25;1224159;75;2943445;-75
2023/10/26 04:59:10;;;;;;;2.15;1.70;;;;;;;9.85;100.00;96070.59;1222371;75;2914970;-76
2023/10/26 05:01:43;;;;;;;3.25;2.20;;;;;;;9.51;100.00;96073.59;1208565;75;4030168;-76
2023/10/26 05:04:15;;;;;;;3.20;2.25;;;;;;;9.35;100.00;96080.63;1218899;75;3016452;-72
2023/10/26 05:06:48;;;;;;;5.60;2.90;;;;;;;9.25;100.00;96089.63;1221782;75;2921357;-72
2023/10/26 05:09:20;;;;;;;5.60;2.95;;;;;;;9.33;100.00;96085.88;1220383;75;2921872;-72
2023/10/26 05:11:56;;;;;;;5.15;2.80;;;;;;;9.43;100.00;96088.28;1220002;75;3059219;-73
2023/10/26 05:14:28;;;;;;;3.10;2.40;;;;;;;9.67;100.00;96099.31;1220130;75;3036212;-74
2023/10/26 05:17:01;;;;;;;2.60;1.90;;;;;;;9.91;100.00;96098.63;1222788;75;2921645;-72
2023/10/26 05:19:34;;;;;;;1.75;1.55;;;;;;;9.93;100.00;96104.34;1225088;75;2918617;-77
2023/10/26 05:22:07;;;;;;;1.90;1.30;;;;;;;9.86;100.00;96104.13;1216672;75;3092267;-72
2023/10/26 05:24:42;;;;;;;1.60;1.20;;;;;;;9.92;100.00;96113.78;1224783;75;2925182;-76
2023/10/26 05:27:18;;;;;;;1.10;1.00;;;;;;;9.94;100.00;96121.47;1223188;75;3001897;-76
2023/10/26 05:29:51;;;;;;;1.55;1.00;;;;;;;9.88;100.00;96116.03;1213140;75;3820329;-75
2023/10/26 05:32:23;;;;;;;1.00;0.90;;;;;;;9.99;100.00;96118.69;1223330;75;2979480;-74
2023/10/26 05:34:56;;;;;;;1.15;0.80;;;;;;;9.89;100.00;96122.25;1225351;75;2913808;-74
2023/10/26 05:37:29;;;;;;;1.15;0.80;;;;;;;9.76;100.00;96134.50;1220193;75;3084774;-74
2023/10/26 05:40:03;;;;;;;4.65;1.45;;;;;;;9.53;100.00;96139.38;1224117;75;2915803;-75
2023/10/26 05:42:38;;;;;;;2.15;1.20;;;;;;;9.68;100.00;96135.56;1225144;75;2916052;-74
2023/10/26 05:45:13;;;;;;;1.10;1.00;;;;;;;9.70;100.00;96124.88;1225141;75;2923566;-75
2023/10/26 05:47:45;;;;;;;1.65;1.25;;;;;;;9.67;100.00;96132.09;1221739;75;3109213;-74
2023/10/26 05:50:19;;;;;;;1.70;1.20;;;;;;;9.82;100.00;96118.81;1225635;75;2916147;-75
2023/10/26 05:52:52;;;;;;;2.15;1.70;;;;;;;9.65;100.00;96125.66;1225803;75;2924523;-76
2023/10/26 05:55:25;;;;;;;1.60;1.30;;;;;;;9.87;100.00;96122.75;1224001;75;2915897;-75
2023/10/26 05:58:00;;;;;;;1.50;1.20;;;;;;;9.98;100.00;96121.94;1225731;75;2920750;-76
2023/10/26 06:00:32;;;;;;;1.60;1.00;;;;;;;10.03;100.00;96121.16;1225754;75;2918707;-76
2023/10/26 06:03:05;;;;;;;1.35;1.05;;;;;;;10.06;100.00;96119.41;1224114;75;2918764;-76
2023/10/26 06:05:38;;;;;;;1.25;0.90;;;;;;;10.07;100.00;96135.28;1224999;75;2915012;-75
2023/10/26 06:08:10;;;;;;;1.10;0.90;;;;;;;10.09;100.00;96127.31;1222590;75;3067160;-72
2023/10/26 06:10:43;;;;;;;1.25;1.10;;;;;;;10.14;100.00;96120.31;1225162;75;2917949;-77
2023/10/26 06:13:18;;;;;;;1.25;1.05;;;;;;;10.15;100.00;96132.72;1225935;75;2915674;-73
2023/10/26 06:15:51;;;;;;;1.10;0.90;;;;;;;10.12;100.00;96144.69;1224317;75;2917850;-76
2023/10/26 06:18:23;;;;;;;2.00;1.35;;;;;;;9.87;100.00;96146.63;1226074;75;2921208;-77
2023/10/26 06:21:03;;;;;;;1.65;1.10;;;;;;;10.09;100.00;96145.72;1221314;75;3043300;-75
2023/10/26 06:23:36;;;;;;;1.20;1.10;;;;;;;9.93;100.00;96145.34;1225252;75;2934082;-76
2023/10/26 06:26:09;;;;;;;2.40;1.80;;;;;;;9.96;100.00;96152.53;1223520;75;2947946;-75
2023/10/26 06:28:46;;;;;;;5.35;3.70;;;;;;;9.90;100.00;96149.06;1226656;75;2919201;-78
2023/10/26 06:31:19;;;;;;;9.30;6.40;;;;;;;9.77;100.00;96162.59;1224494;75;2918874;-73
2023/10/26 06:33:52;;;;;;;11.20;8.25;;;;;;;9.96;100.00;96168.91;1225898;75;2916406;-75
2023/10/26 06:36:25;;;;;;;11.80;8.00;;;;;;;10.05;100.00;96176.06;1213166;75;3909370;-71
2023/10/26 06:38:59;;;;;;;9.55;6.35;;;;;;;10.24;100.00;96173.44;1222172;75;3085372;-73
2023/10/26 06:41:32;;;;;;;8.75;5.45;;;;;;;10.22;100.00;96175.94;1225764;75;2939674;-76
2023/10/26 06:44:08;;;;;;;6.45;4.10;;;;;;;11.16;100.00;96183.03;1225303;75;2923034;-74
2023/10/26 06:46:40;;;;;;;3.85;2.95;;;;;;;12.71;100.00;96177.09;1191186;75;5653782;-75
2023/10/26 06:49:13;;;;;;;3.95;2.80;;;;;;;14.91;100.00;96178.59;1226334;75;2911785;-73
2023/10/26 06:51:46;;;;;;;3.40;3.00;;;;;;;15.08;100.00;96178.91;1222414;75;2984530;-78
2023/10/26 06:54:18;;;;;;;5.10;3.55;;;;;;;17.03;90.47;96185.84;1226192;75;2924337;-74
2023/10/26 06:56:51;;;;;;;4.60;3.40;;;;;;;17.41;86.65;96180.22;1221652;75;3047792;-75
2023/10/26 06:59:26;;;;;;;3.10;2.50;;;;;;;19.81;71.62;96185.44;1226299;75;2918083;-77
2023/10/26 07:01:59;;;;;;;3.15;2.15;;;;;;;22.65;59.84;96189.47;1225971;75;2921586;-78
2023/10/26 07:04:32;;;;;;;2.05;1.80;;;;;;;22.98;57.34;96200.03;1224031;75;2914046;-77
2023/10/26 07:07:06;;;;;;;2.15;1.80;;;;;;;23.69;55.40;96197.63;1221873;75;3065935;-77
2023/10/26 07:09:39;;;;;;;4.90;2.60;;;;;;;22.19;57.44;96192.53;1223510;75;2928913;-76
2023/10/26 07:12:12;;;;;;;4.90;2.15;;;;;;;23.04;53.27;96183.72;1219106;75;3091338;-78
2023/10/26 07:14:52;;;;;;;3.05;2.05;;;;;;;23.40;53.41;96184.63;1219841;75;3072340;-77
2023/10/26 07:17:25;;;;;;;3.10;1.50;;;;;;;24.35;51.47;96177.28;1222286;75;2932579;-75
2023/10/26 07:19:57;;;;;;;2.70;1.70;;;;;;;26.80;46.82;96175.59;1218532;75;3071032;-78
2023/10/26 07:22:30;;;;;;;3.00;1.60;;;;;;;28.10;43.70;96164.38;1222450;75;2934402;-76
2023/10/26 07:25:03;;;;;;;1.35;1.05;;;;;;;29.31;41.81;96164.75;1224375;75;2911440;-79
2023/10/26 07:27:35;;;;;;;3.40;1.70;;;;;;;27.69;43.27;96165.28;1224849;75;2935504;-77
2023/10/26 07:30:13;;;;;;;3.45;2.15;;;;;;;27.46;43.57;96163.47;1225123;75;2925726;-75
2023/10/26 07:32:46;;;;;;;3.80;1.80;;;;;;;25.89;45.63;96164.50;1225276;75;2943816;-75
2023/10/26 07:35:18;;;;;;;2.85;1.80;;;;;;;24.00;50.01;96163.97;1225137;75;2927243;-77
2023/10/26 07:37:52;;;;;;;1.60;1.45;;;;;;;23.80;51.92;96166.97;1224818;75;2924149;-78
2023/10/26 07:40:25;;;;;;;1.50;1.05;;;;;;;24.95;48.97;96159.16;1222147;75;3030872;-76
2023/10/26 07:42:58;;;;;;;1.55;1.10;;;;;;;25.87;47.71;96144.75;1222941;75;3023760;-74
2023/10/26 07:45:33;;;;;;;1.40;1.10;;;;;;;26.29;46.55;96146.31;1223313;75;2923651;-77
2023/10/26 07:48:06;;;;;;;1.70;1.10;;;;;;;24.76;49.67;96148.97;1225320;75;2916528;-76
2023/10/26 07:50:39;;;;;;;1.95;1.55;;;;;;;25.29;48.75;96129.63;1225300;75;2924456;-77
2023/10/26 07:53:11;;;;;;;3.15;2.00;;;;;;;26.61;46.01;96126.94;1225002;75;2925598;-80
2023/10/26 07:55:44;;;;;;;1.75;1.25;;;;;;;27.49;43.97;96150.22;1225396;75;2917157;-81
2023/10/26 07:58:17;;;;;;;2.50;1.50;;;;;;;26.62;45.56;96158.53;1224655;75;2915713;-75
2023/10/26 08:00:52;;;;;;;3.60;2.40;;;;;;;26.58;46.32;96152.72;1222702;75;2965595;-77
2023/10/26 08:03:27;;;;;;;3.20;2.60;;;;;;;24.73;48.90;96142.53;1221977;75;3023581;-79
2023/10/26 08:06:01;;;;;;;7.05;4.60;;;;;;;26.33;47.26;96140.19;1224322;75;2923874;-74
2023/10/26 08:08:34;;;;;;;4.35;3.15;;;;;;;27.25;46.50;96130.09;1225113;75;2922794;-75
2023/10/26 08:11:14;;;;;;;3.95;3.10;;;;;;;24.40;49.87;96132.16;1225202;75;2919254;-81
2023/10/26 08:13:47;;;;;;;3.00;1.60;;;;;;;25.33;49.73;96138.28;1225518;75;2919278;-76
2023/10/26 08:16:22;;;;;;;1.95;1.30;;;;;;;25.27;50.60;96130.25;1221901;75;3088471;-74
2023/10/26 08:18:55;;;;;;;1.95;1.35;;;;;;;24.07;50.71;96142.72;1224767;75;2920713;-78
2023/10/26 08:21:27;;;;;;;2.85;1.60;;;;;;;24.44;50.43;96146.41;1225809;75;2913541;-78
2023/10/26 08:24:00;;;;;;;3.20;1.80;;;;;;;22.43;54.52;96137.75;1224907;75;2925809;-76
2023/10/26 08:26:33;;;;;;;2.05;1.55;;;;;;;22.45;56.60;96143.47;1226499;75;2911528;-77
2023/10/26 08:29:05;;;;;;;10.10;8.05;;;;;;;19.99;61.64;96151.50;1226092;75;2917542;-76
2023/10/26 08:31:43;;;;;;;3.10;2.20;;;;;;;19.13;67.10;96139.19;1222382;75;3095595;-77
2023/10/26 08:34:16;;;;;;;3.35;2.00;;;;;;;19.34;68.72;96146.38;1225372;75;2917889;-76
2023/10/26 08:36:48;;;;;;;2.10;1.50;;;;;;;19.40;67.53;96148.88;1223852;75;2921046;-78
2023/10/26 08:39:21;;;;;;;1.25;1.15;;;;;;;19.41;70.53;96145.56;1224264;75;2924644;-76
2023/10/26 08:41:57;;;;;;;3.05;1.65;;;;;;;18.21;72.74;96139.25;1226094;75;2920729;-74
2023/10/26 08:44:31;;;;;;;2.05;1.65;;;;;;;17.94;74.91;96139.75;1224839;75;2920997;-78
2023/10/26 08:47:08;;;;;;;2.35;1.70;;;;;;;18.37;76.71;96137.81;1224146;75;2952392;-78
2023/10/26 08:49:41;;;;;;;3.60;2.05;;;;;;;18.24;74.23;96146.41;1224300;75;2927654;-74
2023/10/26 08:52:15;;;;;;;3.70;1.95;;;;;;;17.76;78.51;96141.69;1225436;75;2917586;-77
2023/10/26 08:54:47;;;;;;;2.70;1.65;;;;;;;18.24;76.28;96146.41;1211505;75;3780150;-80
2023/10/26 08:57:20;;;;;;;2.75;1.95;;;;;;;18.30;73.60;96152.44;1225146;75;2915465;-75
2023/10/26 08:59:52;;;;;;;1.90;1.60;;;;;;;18.85;73.44;96143.16;1224223;75;2918762;-78
2023/10/26 09:02:28;;;;;;;2.30;1.60;;;;;;;18.62;73.89;96150.94;1224854;75;2920105;-79
2023/10/26 09:05:08;;;;;;;4.55;1.75;;;;;;;18.65;74.76;96153.28;1224025;75;2921739;-74
2023/10/26 09:07:41;;;;;;;3.10;2.00;;;;;;;19.16;74.75;96149.13;1223582;75;2925042;-77
2023/10/26 09:10:14;;;;;;;3.10;1.85;;;;;;;19.24;72.09;96156.63;1224804;75;2922230;-77
2023/10/26 09:13:03;;;;;;;2.50;1.90;;;;;;;19.76;72.43;96151.78;1224966;75;2918318;-77
2023/10/26 09:15:50;;;;;;;1.90;1.50;;;;;;;20.42;69.28;96148.47;1224380;75;2914115;-76
2023/10/26 09:18:26;;;;;;;1.95;1.35;;;;;;;20.69;67.73;96147.72;1225097;75;2919841;-78
2023/10/26 09:21:08;;;;;;;2.20;1.80;;;;;;;19.97;65.46;96154.13;1223260;75;2916825;-76
2023/10/26 09:23:42;;;;;;;2.10;1.60;;;;;;;20.76;63.51;96153.13;1225146;75;3020455;-74
2023/10/26 09:26:14;;;;;;;3.10;1.70;;;;;;;20.59;61.97;96156.75;1225765;75;2970101;-74
2023/10/26 09:28:53;;;;;;;2.90;2.35;;;;;;;20.38;62.67;96148.16;1227688;75;2922615;-78
2023/10/26 09:31:26;;;;;;;4.05;2.90;;;;;;;19.61;62.98;96156.78;1225386;75;2916669;-78
2023/10/26 09:34:14;;;;;;;9.00;5.15;;;;;;;19.79;64.24;96141.56;1222567;75;3067969;-80
2023/10/26 09:36:59;;;;;;;3.80;2.30;;;;;;;19.09;66.73;96136.06;1226067;75;2915282;-77
2023/10/26 09:39:35;;;;;;;1.85;1.40;;;;;;;19.21;64.91;96130.78;1221259;75;3037253;-78
2023/10/26 09:42:09;;;;;;;2.45;1.70;;;;;;;19.87;62.95;96130.38;1220206;75;3111994;-81
2023/10/26 09:44:42;;;;;;;1.50;1.00;;;;;;;20.06;64.77;96126.94;1221518;75;3084450;-76
2023/10/26 09:47:15;;;;;;;1.85;1.40;;;;;;;19.49;63.58;96129.53;1222783;75;3016220;-76
2023/10/26 09:49:52;;;;;;;1.55;1.05;;;;;;;20.34;63.86;96131.16;1226072;75;2917632;-82
2023/10/26 09:52:25;;;;;;;2.75;1.30;;;;;;;19.63;64.19;96131.97;1224171;75;3035882;-77
2023/10/26 09:54:58;;;;;;;1.65;1.35;;;;;;;19.53;64.38;96123.56;1223596;75;2983331;-75
2023/10/26 09:57:37;;;;;;;3.85;1.30;;;;;;;20.38;63.77;96123.16;1222005;75;3036697;-73
2023/10/26 10:00:13;;;;;;;1.50;1.05;;;;;;;21.03;61.29;96118.91;1222143;75;3047757;-82
2023/10/26 10:02:46;;;;;;;1.15;0.90;;;;;;;21.83;60.05;96119.72;1226013;75;2914274;-80
2023/10/26 10:05:43;;;;;;;2.85;1.50;;;;;;;19.92;60.44;96123.84;1226008;75;2916744;-78
2023/10/26 10:08:16;;;;;;;1.60;1.00;;;;;;;20.81;60.87;96110.41;1223772;75;2933584;-77
2023/10/26 10:11:17;;;;;;;1.40;0.95;;;;;;;21.76;56.88;96111.56;1223240;75;2997110;-81
2023/10/26 10:13:50;;;;;;;1.30;0.75;;;;;;;23.47;53.46;96113.13;1226190;75;2913145;-75
2023/10/26 10:16:54;;;;;;;0.60;0.55;;;;;;;23.26;52.49;96099.94;1225512;75;2916700;-82
2023/10/26 10:19:29;;;;;;;1.05;0.75;;;;;;;23.58;52.28;96115.97;1223947;75;2916612;-81
2023/10/26 10:22:04;;;;;;;1.00;0.60;;;;;;;23.94;48.49;96116.09;1225737;75;2922728;-81
2023/10/26 10:24:56;;;;;;;1.95;0.85;;;;;;;24.70;50.66;96117.81;1225765;75;2914892;-77
2023/10/26 10:27:29;;;;;;;1.00;0.80;;;;;;;24.00;48.42;96110.84;1221240;75;3062692;-74
2023/10/26 10:30:07;;;;;;;2.90;1.00;;;;;;;22.60;51.85;96106.13;1221098;75;3029930;-75
2023/10/26 10:32:54;;;;;;;1.45;1.00;;;;;;;22.30;52.41;96105.53;1226122;75;2917558;-80
2023/10/26 10:35:46;;;;;;;1.50;1.00;;;;;;;20.75;54.65;96096.03;1225854;75;2922226;-82
2023/10/26 10:38:24;;;;;;;1.15;0.70;;;;;;;22.98;51.10;96077.25;1223672;75;2989819;-78
2023/10/26 10:41:19;;;;;;;1.30;0.85;;;;;;;22.41;51.81;96065.84;1223481;75;3063106;-83
2023/10/26 10:43:52;;;;;;;4.35;3.70;;;;;;;23.20;51.83;96057.69;1226191;75;2920192;-77
2023/10/26 10:46:29;;;;;;;2.50;1.60;;;;;;;23.36;51.73;96056.66;1223109;75;3064789;-80
2023/10/26 10:49:04;;;;;;;1.60;0.90;;;;;;;23.78;49.54;96048.75;1222704;75;3100987;-77
2023/10/26 10:51:39;;;;;;;1.05;0.70;;;;;;;23.07;52.07;96050.59;1226349;75;2925145;-81
2023/10/26 10:54:17;;;;;;;0.60;0.50;;;;;;;23.09;51.40;96051.47;1225141;75;2927190;-78
2023/10/26 10:56:51;;;;;;;1.05;0.70;;;;;;;23.47;50.99;96044.03;1226096;75;2919690;-78
2023/10/26 10:59:26;;;;;;;0.80;0.60;;;;;;;22.50;52.79;96051.13;1211066;75;3973954;-78
2023/10/26 11:02:11;;;;;;;0.85;0.65;;;;;;;23.43;51.78;96040.25;1224490;75;2923764;-79
2023/10/26 11:04:57;;;;;;;1.05;0.60;;;;;;;22.83;50.86;96036.50;1220563;75;3076371;-81
2023/10/26 11:07:30;;;;;;;1.00;0.70;;;;;;;24.36;48.50;96038.88;1222764;75;3103082;-75
2023/10/26 11:10:07;;;;;;;2.55;1.95;;;;;;;24.06;48.82;96041.34;1224588;75;2932169;-76
2023/10/26 11:12:40;;;;;;;2.60;0.90;;;;;;;23.55;49.95;96033.38;1225848;75;2922623;-76
2023/10/26 11:15:13;;;;;;;2.05;1.25;;;;;;;22.75;51.24;96028.34;1227349;75;2920755;-78
2023/10/26 11:17:47;;;;;;;1.75;1.10;;;;;;;22.36;52.37;96016.72;1226715;75;2919364;-77
2023/10/26 11:20:39;;;;;;;4.70;1.50;;;;;;;21.83;54.09;96013.16;1223407;75;2976598;-77
2023/10/26 11:23:16;;;;;;;1.70;1.30;;;;;;;22.19;53.52;96003.00;1212353;75;3922260;-83
2023/10/26 11:25:51;;;;;;;1.80;0.95;;;;;;;23.03;52.72;96008.47;1227072;75;2921245;-79
2023/10/26 11:28:37;;;;;;;1.70;1.30;;;;;;;21.87;54.62;96022.53;1211825;75;4046869;-82
2023/10/26 11:31:10;;;;;;;3.30;2.40;;;;;;;21.28;55.38;96027.50;1226616;75;2921121;-79
2023/10/26 11:33:43;;;;;;;2.10;1.70;;;;;;;21.11;56.75;96038.78;1224252;75;3000601;-79
2023/10/26 11:36:17;;;;;;;1.65;1.05;;;;;;;21.00;56.48;96045.69;1224136;75;2921885;-78
2023/10/26 11:38:50;;;;;;;1.00;0.50;;;;;;;20.51;57.95;96039.34;1222019;75;3032143;-77
2023/10/26 11:41:30;;;;;;;1.35;0.80;;;;;;;20.29;57.63;96048.81;1222364;75;2955586;-80
2023/10/26 11:44:04;;;;;;;1.70;0.80;;;;;;;19.40;59.60;96055.28;1225331;75;2940907;-81
2023/10/26 11:46:39;;;;;;;1.50;0.85;;;;;;;18.93;61.91;96048.81;1226019;75;2915790;-79
2023/10/26 11:49:12;;;;;;;1.25;0.75;;;;;;;20.01;60.54;96037.00;1226567;75;2914864;-72